Time;durP1;ratioP1;P1;durP2;ratioP2;P2;SDS_P1;SDS_P2;PMS_P1;PMS_P2;Temp;Humidity;BMP_temperature;BMP_pressure;BME280_temperature;BME280_humidity;BME280_pressure;Samples;Min_cycle;Max_cycle;Signal;HPM_P1;HPM_P2
2023/05/10 00:01:27;;;;;;;;;;;;;;;;;;4948034;28;19915;-72
2023/05/10 00:03:53;;;;;;;;;;;;;;;;;;4947703;28;20396;-72
2023/05/10 00:06:19;;;;;;;;;;;;;;;;;;4947892;28;19929;-71
2023/05/10 00:08:45;;;;;;;;;;;;;;;;;;4947050;28;19977;-71
2023/05/10 00:11:11;;;;;;;;;;;;;;;;;;4947862;28;20289;-71
2023/05/10 00:13:37;;;;;;;;;;;;;;;;;;4947281;28;19929;-71
2023/05/10 00:16:03;;;;;;;;;;;;;;;;;;4947242;28;20025;-71
2023/05/10 00:18:29;;;;;;;;;;;;;;;;;;4947921;28;19922;-71
2023/05/10 00:20:55;;;;;;;;;;;;;;;;;;4947208;28;19922;-70
2023/05/10 00:23:21;;;;;;;;;;;;;;;;;;4946855;28;19962;-68
2023/05/10 00:25:47;;;;;;;;;;;;;;;;;;4947194;28;19926;-70
2023/05/10 00:28:13;;;;;;;;;;;;;;;;;;4947244;28;19981;-70
2023/05/10 00:30:39;;;;;;;;;;;;;;;;;;4947301;28;19966;-71
2023/05/10 00:33:05;;;;;;;;;;;;;;;;;;4947240;28;20404;-66
2023/05/10 00:35:31;;;;;;;;;;;;;;;;;;4947678;28;19930;-70
2023/05/10 00:37:57;;;;;;;;;;;;;;;;;;4946179;28;19985;-71
2023/05/10 00:40:23;;;;;;;;;;;;;;;;;;4946404;28;20392;-70
2023/05/10 00:42:49;;;;;;;;;;;;;;;;;;4946577;28;19922;-70
2023/05/10 00:45:15;;;;;;;;;;;;;;;;;;4945773;29;19969;-71
2023/05/10 00:47:41;;;;;;;;;;;;;;;;;;4946944;28;19927;-69
2023/05/10 00:50:07;;;;;;;;;;;;;;;;;;4946960;28;20304;-73
2023/05/10 00:52:33;;;;;;;;;;;;;;;;;;4947359;28;20178;-72
2023/05/10 00:54:59;;;;;;;;;;;;;;;;;;4945568;28;20017;-73
2023/05/10 00:57:25;;;;;;;;;;;;;;;;;;4946683;28;20870;-73
2023/05/10 00:59:51;;;;;;;;;;;;;;;;;;4920844;29;20499;-71
2023/05/10 01:02:17;;;;;;;;;;;;;;;;;;4946866;28;19945;-73
2023/05/10 01:04:43;;;;;;;;;;;;;;;;;;5027974;23;19926;-58
2023/05/10 01:07:09;;;;;;;;;;;;;;;;;;4947746;28;19977;-58
2023/05/10 01:09:35;;;;;;;;;;;;;;;;;;4937114;28;19922;-62
2023/05/10 01:12:01;;;;;;;;;;;;;;;;;;4965654;28;19933;-59
2023/05/10 01:14:27;;;;;;;;;;;;;;;;;;4954232;28;19922;-58
2023/05/10 01:16:53;;;;;;;;;;;;;;;;;;4965700;28;19945;-58
2023/05/10 01:19:19;;;;;;;;;;;;;;;;;;4965574;28;20024;-57
2023/05/10 01:21:45;;;;;;;;;;;;;;;;;;4965494;28;19922;-57
2023/05/10 01:24:11;;;;;;;;;;;;;;;;;;4965573;28;19929;-59
2023/05/10 01:26:37;;;;;;;;;;;;;;;;;;4965556;28;19922;-58
2023/05/10 01:29:03;;;;;;;;;;;;;;;;;;4966579;28;20612;-58
2023/05/10 01:31:29;;;;;;;;;;;;;;;;;;4965953;28;19922;-58
2023/05/10 01:33:55;;;;;;;;;;;;;;;;;;4965687;28;20323;-58
2023/05/10 01:36:25;;;;;;;;;;;;;;;;;;4965923;28;20061;-60
2023/05/10 01:38:51;;;;;;;;;;;;;;;;;;4964046;28;19926;-58
2023/05/10 01:41:18;;;;;;;;;;;;;;;;;;4965710;28;19922;-58
2023/05/10 01:43:44;;;;;;;;;;;;;;;;;;4965397;28;19922;-60
2023/05/10 01:46:10;;;;;;;;;;;;;;;;;;4948119;28;19965;-58
2023/05/10 01:48:36;;;;;;;;;;;;;;;;;;4965458;28;19921;-58
2023/05/10 01:51:02;;;;;;;;;;;;;;;;;;4965824;28;19930;-58
2023/05/10 01:53:28;;;;;;;;;;;;;;;;;;4964989;28;19973;-58
2023/05/10 01:55:54;;;;;;;;;;;;;;;;;;4965218;28;19925;-58
2023/05/10 01:58:20;;;;;;;;;;;;;;;;;;4965314;28;20379;-58
2023/05/10 02:00:46;;;;;;;;;;;;;;;;;;4964859;28;20367;-58
2023/05/10 02:03:12;;;;;;;;;;;;;;;;;;4965601;28;19922;-59
2023/05/10 02:05:38;;;;;;;;;;;;;;;;;;4964506;28;19922;-59
2023/05/10 02:08:04;;;;;;;;;;;;;;;;;;4965062;28;19921;-58
2023/05/10 02:10:30;;;;;;;;;;;;;;;;;;4965630;28;20402;-58
2023/05/10 02:12:56;;;;;;;;;;;;;;;;;;4964690;28;19922;-58
2023/05/10 02:15:22;;;;;;;;;;;;;;;;;;4965344;28;19922;-58
2023/05/10 02:17:48;;;;;;;;;;;;;;;;;;4965027;28;19969;-58
2023/05/10 02:20:14;;;;;;;;;;;;;;;;;;4964566;28;19925;-58
2023/05/10 02:22:40;;;;;;;;;;;;;;;;;;4964867;28;19929;-58
2023/05/10 02:25:06;;;;;;;;;;;;;;;;;;4964164;28;19922;-59
2023/05/10 02:27:32;;;;;;;;;;;;;;;;;;4965534;28;19926;-59
2023/05/10 02:29:58;;;;;;;;;;;;;;;;;;4964910;28;19922;-58
2023/05/10 02:32:24;;;;;;;;;;;;;;;;;;4964932;28;19926;-59
2023/05/10 02:34:51;;;;;;;;;;;;;;;;;;4965045;28;19925;-58
2023/05/10 02:37:18;;;;;;;;;;;;;;;;;;4965431;28;19922;-58
2023/05/10 02:39:45;;;;;;;;;;;;;;;;;;4964366;28;19946;-58
2023/05/10 02:42:11;;;;;;;;;;;;;;;;;;4951104;28;19926;-59
2023/05/10 02:44:37;;;;;;;;;;;;;;;;;;4964650;28;19929;-58
2023/05/10 02:47:03;;;;;;;;;;;;;;;;;;4965169;28;19922;-59
2023/05/10 02:49:29;;;;;;;;;;;;;;;;;;4965129;28;19921;-58
2023/05/10 02:51:56;;;;;;;;;;;;;;;;;;4964604;28;20441;-59
2023/05/10 02:54:22;;;;;;;;;;;;;;;;;;4964333;28;20301;-58
2023/05/10 02:56:48;;;;;;;;;;;;;;;;;;4964925;28;20362;-58
2023/05/10 02:59:14;;;;;;;;;;;;;;;;;;4965221;28;20012;-58
2023/05/10 03:01:40;;;;;;;;;;;;;;;;;;4964329;28;20399;-59
2023/05/10 03:04:06;;;;;;;;;;;;;;;;;;4964678;28;19922;-58
2023/05/10 03:06:32;;;;;;;;;;;;;;;;;;4964916;28;19922;-58
2023/05/10 03:08:58;;;;;;;;;;;;;;;;;;4963859;28;19932;-58
2023/05/10 03:11:25;;;;;;;;;;;;;;;;;;4964840;28;19930;-57
2023/05/10 03:13:51;;;;;;;;;;;;;;;;;;4947422;28;20000;-59
2023/05/10 03:16:17;;;;;;;;;;;;;;;;;;4947181;28;19922;-58
2023/05/10 03:18:43;;;;;;;;;;;;;;;;;;4964488;28;19944;-58
2023/05/10 03:21:10;;;;;;;;;;;;;;;;;;4963895;28;20387;-58
2023/05/10 03:23:36;;;;;;;;;;;;;;;;;;4963558;28;19929;-58
2023/05/10 03:26:02;;;;;;;;;;;;;;;;;;4965080;28;19922;-57
2023/05/10 03:28:28;;;;;;;;;;;;;;;;;;4964856;28;20371;-58
2023/05/10 03:30:54;;;;;;;;;;;;;;;;;;4964342;28;19918;-58
2023/05/10 03:33:20;;;;;;;;;;;;;;;;;;4964407;28;19922;-58
2023/05/10 03:35:46;;;;;;;;;;;;;;;;;;4966548;28;19929;-58
2023/05/10 03:38:12;;;;;;;;;;;;;;;;;;4967206;28;19925;-58
2023/05/10 03:40:38;;;;;;;;;;;;;;;;;;4967919;28;19922;-58
2023/05/10 03:43:04;;;;;;;;;;;;;;;;;;4967928;28;20343;-58
2023/05/10 03:45:30;;;;;;;;;;;;;;;;;;4967924;28;19985;-57
2023/05/10 03:47:56;;;;;;;;;;;;;;;;;;4967547;28;19922;-57
2023/05/10 03:50:22;;;;;;;;;;;;;;;;;;4967707;28;19924;-58
2023/05/10 03:52:48;;;;;;;;;;;;;;;;;;4966939;28;20281;-57
2023/05/10 03:55:14;;;;;;;;;;;;;;;;;;4967888;28;19992;-57
2023/05/10 03:57:40;;;;;;;;;;;;;;;;;;4967567;28;19922;-57
2023/05/10 04:00:06;;;;;;;;;;;;;;;;;;4967789;28;20427;-58
2023/05/10 04:02:32;;;;;;;;;;;;;;;;;;4967686;28;19922;-58
2023/05/10 04:04:58;;;;;;;;;;;;;;;;;;4945983;28;19985;-57
2023/05/10 04:07:24;;;;;;;;;;;;;;;;;;4946871;28;20392;-58
2023/05/10 04:09:50;;;;;;;;;;;;;;;;;;4947591;28;20001;-57
2023/05/10 04:12:18;;;;;;;;;;;;;;;;;;4948202;28;20467;-57
2023/05/10 04:14:43;;;;;;;;;;;;;;;;;;4947758;28;20446;-57
2023/05/10 04:17:10;;;;;;;;;;;;;;;;;;4946592;28;19930;-58
2023/05/10 04:19:36;;;;;;;;;;;;;;;;;;4947619;28;20277;-58
2023/05/10 04:22:02;;;;;;;;;;;;;;;;;;4948607;28;19922;-58
2023/05/10 04:24:28;;;;;;;;;;;;;;;;;;4946428;28;20595;-58
2023/05/10 04:26:54;;;;;;;;;;;;;;;;;;4947449;28;19926;-57
2023/05/10 04:29:20;;;;;;;;;;;;;;;;;;4947394;28;19927;-58
2023/05/10 04:31:46;;;;;;;;;;;;;;;;;;4947320;28;19922;-58
2023/05/10 04:34:12;;;;;;;;;;;;;;;;;;4946647;28;19923;-58
2023/05/10 04:36:38;;;;;;;;;;;;;;;;;;4947505;28;20495;-58
2023/05/10 04:39:04;;;;;;;;;;;;;;;;;;4947389;28;20384;-58
2023/05/10 04:41:30;;;;;;;;;;;;;;;;;;4947852;28;19922;-58
2023/05/10 04:43:56;;;;;;;;;;;;;;;;;;4947274;28;19929;-57
2023/05/10 04:46:22;;;;;;;;;;;;;;;;;;4945416;28;20026;-59
2023/05/10 04:48:48;;;;;;;;;;;;;;;;;;4947107;28;19972;-58
2023/05/10 04:51:14;;;;;;;;;;;;;;;;;;4947373;28;19937;-58
2023/05/10 04:53:40;;;;;;;;;;;;;;;;;;4946026;28;20561;-59
2023/05/10 04:56:07;;;;;;;;;;;;;;;;;;4947253;28;19922;-58
2023/05/10 04:58:33;;;;;;;;;;;;;;;;;;4947353;28;19934;-58
2023/05/10 05:00:59;;;;;;;;;;;;;;;;;;4946551;28;20545;-58
2023/05/10 05:03:26;;;;;;;;;;;;;;;;;;4946850;28;19945;-60
2023/05/10 05:05:52;;;;;;;;;;;;;;;;;;4959833;28;20415;-59
2023/05/10 05:08:18;;;;;;;;;;;;;;;;;;4965169;28;19929;-58
2023/05/10 05:10:44;;;;;;;;;;;;;;;;;;4965531;28;19945;-59
2023/05/10 05:13:10;;;;;;;;;;;;;;;;;;4966239;28;20468;-58
2023/05/10 05:15:35;;;;;;;;;;;;;;;;;;4965952;28;20423;-60
2023/05/10 05:18:02;;;;;;;;;;;;;;;;;;4966108;28;19972;-60
2023/05/10 05:20:27;;;;;;;;;;;;;;;;;;4965816;28;20061;-60
2023/05/10 05:22:54;;;;;;;;;;;;;;;;;;4964552;28;20634;-60
2023/05/10 05:25:20;;;;;;;;;;;;;;;;;;4965564;28;19929;-59
2023/05/10 05:27:46;;;;;;;;;;;;;;;;;;4965078;28;19958;-60
2023/05/10 05:30:12;;;;;;;;;;;;;;;;;;4965502;28;20339;-60
2023/05/10 05:32:38;;;;;;;;;;;;;;;;;;4965328;28;19922;-59
2023/05/10 05:35:04;;;;;;;;;;;;;;;;;;4948615;28;19922;-59
2023/05/10 05:37:30;;;;;;;;;;;;;;;;;;4965352;28;19922;-59
2023/05/10 05:39:56;;;;;;;;;;;;;;;;;;4965363;28;19922;-59
2023/05/10 05:42:22;;;;;;;;;;;;;;;;;;4965044;28;20432;-60
2023/05/10 05:44:48;;;;;;;;;;;;;;;;;;4956023;28;20285;-60
2023/05/10 05:47:14;;;;;;;;;;;;;;;;;;4948015;28;20377;-59
2023/05/10 05:49:40;;;;;;;;;;;;;;;;;;4961060;28;19933;-60
2023/05/10 05:52:06;;;;;;;;;;;;;;;;;;4963396;28;19929;-60
2023/05/10 05:54:34;;;;;;;;;;;;;;;;;;4943979;28;20012;-60
2023/05/10 05:57:00;;;;;;;;;;;;;;;;;;4951178;28;19922;-60
2023/05/10 05:59:27;;;;;;;;;;;;;;;;;;4963377;28;19977;-61
2023/05/10 06:01:53;;;;;;;;;;;;;;;;;;4951502;28;19925;-60
2023/05/10 06:04:19;;;;;;;;;;;;;;;;;;4957708;28;19926;-59
2023/05/10 06:06:45;;;;;;;;;;;;;;;;;;4949653;28;19926;-58
2023/05/10 06:09:11;;;;;;;;;;;;;;;;;;4958253;28;19930;-60
2023/05/10 06:11:37;;;;;;;;;;;;;;;;;;4963562;28;19944;-59
2023/05/10 06:14:04;;;;;;;;;;;;;;;;;;4964665;28;19945;-59
2023/05/10 06:16:30;;;;;;;;;;;;;;;;;;4964793;28;19918;-59
2023/05/10 06:18:56;;;;;;;;;;;;;;;;;;4961927;28;19945;-58
2023/05/10 06:21:22;;;;;;;;;;;;;;;;;;4963911;28;19921;-59
2023/05/10 06:23:48;;;;;;;;;;;;;;;;;;4963475;28;19925;-58
2023/05/10 06:26:14;;;;;;;;;;;;;;;;;;4963955;28;19929;-59
2023/05/10 06:28:40;;;;;;;;;;;;;;;;;;4964644;28;20028;-59
2023/05/10 06:31:06;;;;;;;;;;;;;;;;;;4964669;28;20359;-59
2023/05/10 06:33:32;;;;;;;;;;;;;;;;;;4964336;28;20312;-59
2023/05/10 06:35:58;;;;;;;;;;;;;;;;;;4964371;28;20412;-59
2023/05/10 06:38:24;;;;;;;;;;;;;;;;;;4947026;28;20556;-58
2023/05/10 06:40:50;;;;;;;;;;;;;;;;;;4964365;28;20030;-58
2023/05/10 06:43:16;;;;;;;;;;;;;;;;;;4964708;28;19922;-58
2023/05/10 06:45:42;;;;;;;;;;;;;;;;;;4964193;28;19944;-59
2023/05/10 06:48:08;;;;;;;;;;;;;;;;;;4946915;28;20287;-58
2023/05/10 06:50:34;;;;;;;;;;;;;;;;;;4964855;28;19922;-60
2023/05/10 06:53:01;;;;;;;;;;;;;;;;;;4963997;28;19944;-59
2023/05/10 06:55:27;;;;;;;;;;;;;;;;;;4963747;28;19922;-59
2023/05/10 06:57:53;;;;;;;;;;;;;;;;;;4963521;28;19965;-59
2023/05/10 07:00:19;;;;;;;;;;;;;;;;;;4963904;28;19926;-59
2023/05/10 07:02:45;;;;;;;;;;;;;;;;;;4963400;28;20145;-60
2023/05/10 07:05:12;;;;;;;;;;;;;;;;;;4963634;28;19922;-60
2023/05/10 07:07:38;;;;;;;;;;;;;;;;;;4963885;28;19970;-60
2023/05/10 07:10:04;;;;;;;;;;;;;;;;;;4966004;28;20016;-60
2023/05/10 07:12:30;;;;;;;;;;;;;;;;;;4967041;28;19925;-59
2023/05/10 07:14:56;;;;;;;;;;;;;;;;;;4967747;28;20386;-60
2023/05/10 07:17:22;;;;;;;;;;;;;;;;;;4968460;28;20359;-60
2023/05/10 07:19:48;;;;;;;;;;;;;;;;;;4967762;28;20387;-59
2023/05/10 07:22:14;;;;;;;;;;;;;;;;;;4967530;28;20364;-60
2023/05/10 07:24:40;;;;;;;;;;;;;;;;;;4949952;28;19972;-60
2023/05/10 07:27:06;;;;;;;;;;;;;;;;;;4968023;28;19922;-59
2023/05/10 07:29:32;;;;;;;;;;;;;;;;;;4968482;28;19929;-60
2023/05/10 07:31:58;;;;;;;;;;;;;;;;;;4968096;28;19922;-60
2023/05/10 07:34:24;;;;;;;;;;;;;;;;;;4967831;28;19922;-60
2023/05/10 07:36:50;;;;;;;;;;;;;;;;;;4967122;28;19998;-60
2023/05/10 07:39:16;;;;;;;;;;;;;;;;;;4967345;28;19922;-60
2023/05/10 07:41:43;;;;;;;;;;;;;;;;;;4967558;28;19933;-60
2023/05/10 07:44:09;;;;;;;;;;;;;;;;;;4967959;28;19928;-60
2023/05/10 07:46:35;;;;;;;;;;;;;;;;;;4967724;28;20021;-61
2023/05/10 07:49:01;;;;;;;;;;;;;;;;;;4968203;28;20036;-60
2023/05/10 07:51:27;;;;;;;;;;;;;;;;;;4967942;28;19922;-59
2023/05/10 07:53:54;;;;;;;;;;;;;;;;;;4966645;28;19928;-60
2023/05/10 07:56:20;;;;;;;;;;;;;;;;;;4967120;28;20025;-59
2023/05/10 07:58:46;;;;;;;;;;;;;;;;;;4967403;28;20017;-59
2023/05/10 08:01:12;;;;;;;;;;;;;;;;;;4967580;28;19928;-60
2023/05/10 08:03:38;;;;;;;;;;;;;;;;;;4967285;28;19929;-59
2023/05/10 08:06:04;;;;;;;;;;;;;;;;;;4967457;28;19980;-60
2023/05/10 08:08:30;;;;;;;;;;;;;;;;;;4966900;28;19922;-60
2023/05/10 08:10:56;;;;;;;;;;;;;;;;;;4966851;28;19929;-60
2023/05/10 08:13:22;;;;;;;;;;;;;;;;;;4967620;28;19976;-60
2023/05/10 08:15:48;;;;;;;;;;;;;;;;;;4966866;28;19922;-59
2023/05/10 08:18:14;;;;;;;;;;;;;;;;;;4966951;28;19942;-59
2023/05/10 08:20:40;;;;;;;;;;;;;;;;;;4966160;28;19926;-60
2023/05/10 08:23:06;;;;;;;;;;;;;;;;;;4966920;28;19991;-60
2023/05/10 08:25:32;;;;;;;;;;;;;;;;;;4966991;28;19929;-60
2023/05/10 08:27:58;;;;;;;;;;;;;;;;;;4966801;28;20504;-59
2023/05/10 08:30:24;;;;;;;;;;;;;;;;;;4967089;28;20012;-60
2023/05/10 08:32:50;;;;;;;;;;;;;;;;;;4966789;28;19921;-60
2023/05/10 08:35:16;;;;;;;;;;;;;;;;;;4966859;28;20009;-60
2023/05/10 08:37:42;;;;;;;;;;;;;;;;;;4964754;28;19922;-60
2023/05/10 08:40:09;;;;;;;;;;;;;;;;;;4964219;28;19929;-60
2023/05/10 08:42:35;;;;;;;;;;;;;;;;;;4947623;28;19923;-60
2023/05/10 08:45:01;;;;;;;;;;;;;;;;;;4967015;28;19926;-60
2023/05/10 08:47:27;;;;;;;;;;;;;;;;;;4966765;28;19933;-59
2023/05/10 08:49:53;;;;;;;;;;;;;;;;;;4966497;28;19922;-60
2023/05/10 08:52:19;;;;;;;;;;;;;;;;;;4965932;28;19944;-60
2023/05/10 08:54:45;;;;;;;;;;;;;;;;;;4965995;28;19933;-59
2023/05/10 08:57:11;;;;;;;;;;;;;;;;;;4966083;28;19988;-61
2023/05/10 08:59:39;;;;;;;;;;;;;;;;;;4966107;28;19921;-59
2023/05/10 09:02:05;;;;;;;;;;;;;;;;;;4966528;28;19984;-63
2023/05/10 09:04:31;;;;;;;;;;;;;;;;;;4966613;28;19922;-59
2023/05/10 09:06:57;;;;;;;;;;;;;;;;;;4965128;28;19929;-60
2023/05/10 09:09:23;;;;;;;;;;;;;;;;;;4966470;28;19937;-60
2023/05/10 09:11:49;;;;;;;;;;;;;;;;;;4965894;28;19922;-59
2023/05/10 09:14:15;;;;;;;;;;;;;;;;;;4966360;28;20423;-60
2023/05/10 09:16:41;;;;;;;;;;;;;;;;;;4965572;28;19922;-60
2023/05/10 09:19:08;;;;;;;;;;;;;;;;;;4966111;28;19930;-59
2023/05/10 09:21:35;;;;;;;;;;;;;;;;;;4966011;28;19922;-60
2023/05/10 09:24:01;;;;;;;;;;;;;;;;;;4965853;28;19930;-60
2023/05/10 09:26:27;;;;;;;;;;;;;;;;;;4965824;28;19937;-60
2023/05/10 09:28:53;;;;;;;;;;;;;;;;;;4965656;28;19922;-60
2023/05/10 09:31:19;;;;;;;;;;;;;;;;;;4965722;28;20427;-60
2023/05/10 09:33:46;;;;;;;;;;;;;;;;;;4965080;28;19980;-60
2023/05/10 09:36:12;;;;;;;;;;;;;;;;;;4965568;28;19929;-60
2023/05/10 09:38:38;;;;;;;;;;;;;;;;;;4964583;28;19918;-60
2023/05/10 09:41:04;;;;;;;;;;;;;;;;;;4966163;28;20415;-60
2023/05/10 09:43:31;;;;;;;;;;;;;;;;;;4966342;28;19925;-60
2023/05/10 09:45:57;;;;;;;;;;;;;;;;;;4948013;28;19922;-60
2023/05/10 09:48:23;;;;;;;;;;;;;;;;;;4965674;28;19922;-60
2023/05/10 09:50:49;;;;;;;;;;;;;;;;;;4965130;28;19950;-60
2023/05/10 09:53:16;;;;;;;;;;;;;;;;;;4964884;28;20688;-60
2023/05/10 09:55:44;;;;;;;;;;;;;;;;;;4965434;28;19922;-61
2023/05/10 09:58:10;;;;;;;;;;;;;;;;;;4964886;28;19976;-60
2023/05/10 10:00:36;;;;;;;;;;;;;;;;;;4965277;28;19922;-60
2023/05/10 10:03:03;;;;;;;;;;;;;;;;;;4965904;28;19922;-60
2023/05/10 10:05:29;;;;;;;;;;;;;;;;;;4964931;28;20019;-60
2023/05/10 10:07:55;;;;;;;;;;;;;;;;;;4964571;28;19969;-59
2023/05/10 10:10:21;;;;;;;;;;;;;;;;;;4965222;28;19925;-61
2023/05/10 10:12:47;;;;;;;;;;;;;;;;;;4965354;28;20351;-60
2023/05/10 10:15:13;;;;;;;;;;;;;;;;;;4965130;28;19922;-60
2023/05/10 10:17:39;;;;;;;;;;;;;;;;;;4964582;28;20030;-60
2023/05/10 10:20:05;;;;;;;;;;;;;;;;;;4964702;28;19955;-63
2023/05/10 10:22:31;;;;;;;;;;;;;;;;;;4964866;28;19933;-60
2023/05/10 10:24:57;;;;;;;;;;;;;;;;;;4964639;28;19922;-61
2023/05/10 10:27:23;;;;;;;;;;;;;;;;;;4964676;28;19985;-60
2023/05/10 10:29:49;;;;;;;;;;;;;;;;;;4964030;28;20009;-59
2023/05/10 10:32:15;;;;;;;;;;;;;;;;;;4964696;28;20025;-60
2023/05/10 10:34:41;;;;;;;;;;;;;;;;;;4947149;28;19926;-60
2023/05/10 10:37:07;;;;;;;;;;;;;;;;;;4964483;28;19929;-60
2023/05/10 10:39:36;;;;;;;;;;;;;;;;;;4959931;28;19922;-60
2023/05/10 10:42:03;;;;;;;;;;;;;;;;;;4959045;28;20435;-61
2023/05/10 10:44:29;;;;;;;;;;;;;;;;;;4949336;28;20496;-60
2023/05/10 10:46:55;;;;;;;;;;;;;;;;;;4955539;28;19933;-61
2023/05/10 10:49:21;;;;;;;;;;;;;;;;;;4955067;28;20296;-60
2023/05/10 10:51:47;;;;;;;;;;;;;;;;;;4966059;28;19926;-60
2023/05/10 10:54:16;;;;;;;;;;;;;;;;;;4968531;28;19929;-61
2023/05/10 10:56:46;;;;;;;;;;;;;;;;;;4967346;28;19926;-59
2023/05/10 10:59:12;;;;;;;;;;;;;;;;;;4967464;28;19922;-60
2023/05/10 11:01:38;;;;;;;;;;;;;;;;;;4967661;28;19922;-60
2023/05/10 11:04:04;;;;;;;;;;;;;;;;;;4968734;28;19922;-59
2023/05/10 11:06:31;;;;;;;;;;;;;;;;;;4967878;28;20411;-60
2023/05/10 11:08:57;;;;;;;;;;;;;;;;;;4968385;28;19921;-59
2023/05/10 11:11:23;;;;;;;;;;;;;;;;;;4968207;28;19944;-59
2023/05/10 11:13:49;;;;;;;;;;;;;;;;;;4950594;28;20380;-60
2023/05/10 11:16:15;;;;;;;;;;;;;;;;;;4967923;28;19976;-59
2023/05/10 11:18:41;;;;;;;;;;;;;;;;;;4967658;28;19926;-59
2023/05/10 11:21:09;;;;;;;;;;;;;;;;;;4967962;28;19922;-60
2023/05/10 11:23:35;;;;;;;;;;;;;;;;;;4967738;28;19922;-62
2023/05/10 11:26:01;;;;;;;;;;;;;;;;;;4968316;28;19926;-60
2023/05/10 11:28:28;;;;;;;;;;;;;;;;;;4968356;28;20400;-59
2023/05/10 11:30:54;;;;;;;;;;;;;;;;;;4967658;28;20020;-59
2023/05/10 11:33:20;;;;;;;;;;;;;;;;;;4968093;28;19973;-59
2023/05/10 11:35:46;;;;;;;;;;;;;;;;;;4968025;28;19933;-59
2023/05/10 11:38:12;;;;;;;;;;;;;;;;;;4949486;28;19929;-59
2023/05/10 11:40:38;;;;;;;;;;;;;;;;;;4967837;28;19921;-59
2023/05/10 11:43:04;;;;;;;;;;;;;;;;;;4950756;28;19926;-59
2023/05/10 11:45:31;;;;;;;;;;;;;;;;;;4967966;28;19949;-59
2023/05/10 11:47:57;;;;;;;;;;;;;;;;;;4967750;28;19941;-59
2023/05/10 11:50:23;;;;;;;;;;;;;;;;;;4967935;28;20532;-59
2023/05/10 11:52:49;;;;;;;;;;;;;;;;;;4966948;28;19918;-59
2023/05/10 11:55:15;;;;;;;;;;;;;;;;;;4967268;28;19922;-59
2023/05/10 11:57:43;;;;;;;;;;;;;;;;;;4949648;28;20028;-60
2023/05/10 12:00:09;;;;;;;;;;;;;;;;;;4967353;28;19928;-59
2023/05/10 12:02:35;;;;;;;;;;;;;;;;;;4967733;28;19953;-60
2023/05/10 12:05:01;;;;;;;;;;;;;;;;;;4967361;28;19948;-59
2023/05/10 12:07:27;;;;;;;;;;;;;;;;;;4967102;28;19930;-59
2023/05/10 12:09:53;;;;;;;;;;;;;;;;;;4967276;28;19965;-60
2023/05/10 12:12:19;;;;;;;;;;;;;;;;;;4967268;28;19972;-60
2023/05/10 12:14:45;;;;;;;;;;;;;;;;;;4966748;28;19926;-60
2023/05/10 12:17:11;;;;;;;;;;;;;;;;;;4967017;28;19930;-60
2023/05/10 12:19:38;;;;;;;;;;;;;;;;;;4966671;28;19922;-59
2023/05/10 12:22:04;;;;;;;;;;;;;;;;;;4966564;28;19926;-60
2023/05/10 12:24:30;;;;;;;;;;;;;;;;;;4967313;28;20025;-59
2023/05/10 12:26:56;;;;;;;;;;;;;;;;;;4966817;28;20020;-60
2023/05/10 12:29:22;;;;;;;;;;;;;;;;;;4966939;28;19979;-60
2023/05/10 12:31:48;;;;;;;;;;;;;;;;;;4966938;28;19929;-60
2023/05/10 12:34:14;;;;;;;;;;;;;;;;;;4967047;28;20292;-59
2023/05/10 12:36:40;;;;;;;;;;;;;;;;;;4965911;28;19961;-60
2023/05/10 12:39:06;;;;;;;;;;;;;;;;;;4966631;28;19976;-60
2023/05/10 12:41:32;;;;;;;;;;;;;;;;;;4967007;28;19988;-61
2023/05/10 12:43:58;;;;;;;;;;;;;;;;;;4966842;28;19926;-60
2023/05/10 12:46:27;;;;;;;;;;;;;;;;;;4966641;28;19945;-60
2023/05/10 12:48:54;;;;;;;;;;;;;;;;;;4966631;28;19922;-60
2023/05/10 12:51:22;;;;;;;;;;;;;;;;;;4978135;28;19992;-60
2023/05/10 12:53:48;;;;;;;;;;;;;;;;;;4966185;28;19922;-60
2023/05/10 12:56:14;;;;;;;;;;;;;;;;;;4966201;28;19986;-59
2023/05/10 12:58:40;;;;;;;;;;;;;;;;;;4966172;28;19926;-60
2023/05/10 13:01:06;;;;;;;;;;;;;;;;;;4966441;28;20016;-60
2023/05/10 13:03:32;;;;;;;;;;;;;;;;;;4966564;28;19930;-60
2023/05/10 13:06:13;;;;;;;;;;;;;;;;;;4966010;28;19922;-59
2023/05/10 13:08:39;;;;;;;;;;;;;;;;;;4964902;28;19965;-59
2023/05/10 13:11:05;;;;;;;;;;;;;;;;;;4966648;28;19972;-60
2023/05/10 13:13:31;;;;;;;;;;;;;;;;;;4966059;28;20304;-59
2023/05/10 13:15:57;;;;;;;;;;;;;;;;;;4965833;28;19922;-59
2023/05/10 13:18:24;;;;;;;;;;;;;;;;;;4966327;28;19977;-60
2023/05/10 13:20:50;;;;;;;;;;;;;;;;;;4956236;28;19919;-60
2023/05/10 13:23:16;;;;;;;;;;;;;;;;;;4959216;28;19954;-59
2023/05/10 13:25:42;;;;;;;;;;;;;;;;;;4965976;28;19922;-60
2023/05/10 13:28:08;;;;;;;;;;;;;;;;;;4965877;28;19976;-60
2023/05/10 13:30:34;;;;;;;;;;;;;;;;;;4966386;28;19929;-60
2023/05/10 13:33:00;;;;;;;;;;;;;;;;;;4966225;28;19965;-59
2023/05/10 13:35:26;;;;;;;;;;;;;;;;;;4965087;28;19988;-59
2023/05/10 13:37:53;;;;;;;;;;;;;;;;;;4964647;28;20411;-60
2023/05/10 13:40:19;;;;;;;;;;;;;;;;;;4965713;28;19964;-60
2023/05/10 13:42:45;;;;;;;;;;;;;;;;;;4965491;28;20395;-60
2023/05/10 13:45:12;;;;;;;;;;;;;;;;;;4965593;28;19926;-61
2023/05/10 13:47:38;;;;;;;;;;;;;;;;;;4965286;28;20307;-60
2023/05/10 13:50:04;;;;;;;;;;;;;;;;;;4965789;28;20027;-65
2023/05/10 13:52:31;;;;;;;;;;;;;;;;;;4965015;28;20008;-61
2023/05/10 13:54:57;;;;;;;;;;;;;;;;;;4964896;28;19922;-60
2023/05/10 13:57:23;;;;;;;;;;;;;;;;;;4965431;28;19918;-60
2023/05/10 13:59:49;;;;;;;;;;;;;;;;;;4965428;28;19922;-60
2023/05/10 14:02:15;;;;;;;;;;;;;;;;;;4965416;28;19969;-60
2023/05/10 14:04:41;;;;;;;;;;;;;;;;;;4964730;28;19926;-60
2023/05/10 14:07:07;;;;;;;;;;;;;;;;;;4964440;28;19922;-59
2023/05/10 14:09:33;;;;;;;;;;;;;;;;;;4965580;28;19977;-60
2023/05/10 14:11:59;;;;;;;;;;;;;;;;;;4965439;28;19969;-60
2023/05/10 14:14:25;;;;;;;;;;;;;;;;;;4964807;28;19976;-60
2023/05/10 14:16:51;;;;;;;;;;;;;;;;;;4964817;28;20383;-60
2023/05/10 14:19:17;;;;;;;;;;;;;;;;;;4965118;28;19923;-60
2023/05/10 14:21:44;;;;;;;;;;;;;;;;;;4963889;28;19929;-60
2023/05/10 14:24:10;;;;;;;;;;;;;;;;;;4965042;28;19929;-59
2023/05/10 14:26:36;;;;;;;;;;;;;;;;;;4964602;28;20029;-59
2023/05/10 14:29:02;;;;;;;;;;;;;;;;;;4965732;28;20072;-60
2023/05/10 14:31:30;;;;;;;;;;;;;;;;;;4964864;28;20450;-59
2023/05/10 14:33:56;;;;;;;;;;;;;;;;;;4964009;28;19949;-59
2023/05/10 14:36:22;;;;;;;;;;;;;;;;;;4963403;28;20390;-59
2023/05/10 14:38:48;;;;;;;;;;;;;;;;;;4964926;28;19922;-59
2023/05/10 14:41:16;;;;;;;;;;;;;;;;;;4964876;28;19922;-60
2023/05/10 14:43:42;;;;;;;;;;;;;;;;;;4964751;28;19933;-60
2023/05/10 14:46:08;;;;;;;;;;;;;;;;;;4964787;28;19976;-60
2023/05/10 14:48:34;;;;;;;;;;;;;;;;;;4965117;28;19929;-59
2023/05/10 14:51:00;;;;;;;;;;;;;;;;;;4964406;28;20153;-59
2023/05/10 14:53:26;;;;;;;;;;;;;;;;;;4964425;28;19933;-60
2023/05/10 14:55:52;;;;;;;;;;;;;;;;;;4963776;28;19922;-60
2023/05/10 14:58:18;;;;;;;;;;;;;;;;;;4964797;28;19925;-59
2023/05/10 15:00:45;;;;;;;;;;;;;;;;;;4964463;28;20442;-59
2023/05/10 15:03:11;;;;;;;;;;;;;;;;;;4964576;28;19926;-60
2023/05/10 15:05:37;;;;;;;;;;;;;;;;;;4963837;28;19922;-59
2023/05/10 15:08:04;;;;;;;;;;;;;;;;;;4964355;28;20304;-59
2023/05/10 15:10:30;;;;;;;;;;;;;;;;;;4964956;28;19918;-59
2023/05/10 15:12:56;;;;;;;;;;;;;;;;;;4964516;28;19935;-59
2023/05/10 15:15:22;;;;;;;;;;;;;;;;;;4964268;28;20368;-60
2023/05/10 15:17:48;;;;;;;;;;;;;;;;;;4964069;28;20598;-60
2023/05/10 15:20:14;;;;;;;;;;;;;;;;;;4963884;28;20628;-59
2023/05/10 15:22:40;;;;;;;;;;;;;;;;;;4963419;28;19918;-59
2023/05/10 15:25:06;;;;;;;;;;;;;;;;;;4964458;28;20032;-58
2023/05/10 15:27:32;;;;;;;;;;;;;;;;;;4964338;28;19977;-60
2023/05/10 15:29:59;;;;;;;;;;;;;;;;;;4963395;28;19922;-59
2023/05/10 15:32:25;;;;;;;;;;;;;;;;;;4967279;28;19926;-59
2023/05/10 15:34:51;;;;;;;;;;;;;;;;;;4967397;28;20009;-60
2023/05/10 15:37:17;;;;;;;;;;;;;;;;;;4966444;28;19922;-59
2023/05/10 15:39:43;;;;;;;;;;;;;;;;;;4962205;28;19930;-60
2023/05/10 15:42:09;;;;;;;;;;;;;;;;;;4967827;28;20347;-59
2023/05/10 15:44:38;;;;;;;;;;;;;;;;;;4962773;28;19929;-60
2023/05/10 15:47:04;;;;;;;;;;;;;;;;;;4967868;28;19922;-59
2023/05/10 15:49:30;;;;;;;;;;;;;;;;;;4968030;28;19922;-59
2023/05/10 15:51:56;;;;;;;;;;;;;;;;;;4966627;28;20478;-59
2023/05/10 15:54:22;;;;;;;;;;;;;;;;;;4967650;28;20418;-59
2023/05/10 15:56:48;;;;;;;;;;;;;;;;;;4966865;28;19926;-59
2023/05/10 15:59:14;;;;;;;;;;;;;;;;;;4966823;28;19917;-60
2023/05/10 16:01:40;;;;;;;;;;;;;;;;;;4966729;28;19973;-59
2023/05/10 16:04:06;;;;;;;;;;;;;;;;;;4967579;28;19981;-59
2023/05/10 16:06:33;;;;;;;;;;;;;;;;;;4966342;28;19976;-59
2023/05/10 16:08:59;;;;;;;;;;;;;;;;;;4967319;28;19922;-59
2023/05/10 16:11:25;;;;;;;;;;;;;;;;;;4967155;28;19953;-59
2023/05/10 16:13:51;;;;;;;;;;;;;;;;;;4966889;28;19933;-59
2023/05/10 16:16:17;;;;;;;;;;;;;;;;;;4949236;28;20446;-59
2023/05/10 16:18:43;;;;;;;;;;;;;;;;;;4965660;28;19922;-59
2023/05/10 16:21:09;;;;;;;;;;;;;;;;;;4965520;28;20379;-59
2023/05/10 16:23:35;;;;;;;;;;;;;;;;;;4966996;28;20375;-60
2023/05/10 16:26:02;;;;;;;;;;;;;;;;;;4967180;28;20407;-60
2023/05/10 16:28:28;;;;;;;;;;;;;;;;;;4966442;28;19973;-59
2023/05/10 16:30:54;;;;;;;;;;;;;;;;;;4966191;28;20404;-59
2023/05/10 16:33:20;;;;;;;;;;;;;;;;;;4966496;28;19984;-59
2023/05/10 16:35:46;;;;;;;;;;;;;;;;;;4965569;28;19964;-59
2023/05/10 16:38:12;;;;;;;;;;;;;;;;;;4966093;28;19930;-59